createdAt,value
2023-01-07T00:01:14.207Z,97754.81
2023-01-07T00:03:42.556Z,97748.59
2023-01-07T00:06:11.448Z,97749.56
2023-01-07T00:08:41.161Z,97749.56
2023-01-07T00:11:10.381Z,97752.34
2023-01-07T00:13:38.439Z,97745.22
2023-01-07T00:16:10.344Z,97742.53
2023-01-07T00:18:38.571Z,97746.19
2023-01-07T00:21:07.684Z,97747.13
2023-01-07T00:23:36.336Z,97748.94
2023-01-07T00:26:05.693Z,97748.00
2023-01-07T00:28:34.530Z,97743.56
2023-01-07T00:31:02.740Z,97743.56
2023-01-07T00:33:35.088Z,97744.53
2023-01-07T00:36:03.738Z,97742.72
2023-01-07T00:38:31.953Z,97745.41
2023-01-07T00:41:00.117Z,97744.63
2023-01-07T00:43:28.266Z,97745.56
2023-01-07T00:45:56.377Z,97740.19
2023-01-07T00:48:25.285Z,97751.81
2023-01-07T00:50:54.877Z,97754.50
2023-01-07T00:53:23.332Z,97746.53
2023-01-07T00:55:51.678Z,97754.59
2023-01-07T00:58:22.133Z,97749.28
2023-01-07T01:00:51.752Z,97749.28
2023-01-07T01:03:19.937Z,97756.41
2023-01-07T01:05:48.024Z,97758.13
2023-01-07T01:08:18.039Z,97755.44
2023-01-07T01:10:46.238Z,97773.38
2023-01-07T01:13:16.740Z,97763.56
2023-01-07T01:15:46.790Z,97767.22
2023-01-07T01:18:15.008Z,97771.72
2023-01-07T01:20:43.142Z,97773.63
2023-01-07T01:23:11.284Z,97776.31
2023-01-07T01:25:40.838Z,97777.19
2023-01-07T01:28:08.997Z,97772.75
2023-01-07T01:30:37.063Z,97773.72
2023-01-07T01:33:05.386Z,97778.13
2023-01-07T01:35:33.594Z,97781.78
2023-01-07T01:38:01.927Z,97778.22
2023-01-07T01:40:32.316Z,97779.16
2023-01-07T01:43:01.916Z,97778.31
2023-01-07T01:45:30.263Z,97778.31
2023-01-07T01:48:00.554Z,97784.59
2023-01-07T01:50:29.805Z,97785.56
2023-01-07T01:53:01.229Z,97786.41
2023-01-07T01:55:32.095Z,97794.47
2023-01-07T01:58:05.139Z,97790.06
2023-01-07T02:00:33.456Z,97785.66
2023-01-07T02:03:01.542Z,97791.03
2023-01-07T02:05:33.147Z,97786.59
2023-01-07T02:08:01.324Z,97780.31
2023-01-07T02:10:31.900Z,97781.25
2023-01-07T02:13:17.907Z,97782.22
2023-01-07T02:15:51.580Z,97778.66
2023-01-07T02:18:30.667Z,97781.34
2023-01-07T02:21:11.060Z,97775.97
2023-01-07T02:24:17.890Z,97779.59
2023-01-07T02:27:33.332Z,97779.59
2023-01-07T02:30:43.158Z,97780.56
2023-01-07T02:33:36.774Z,97777.00
2023-01-07T02:36:32.187Z,97777.97
2023-01-07T02:39:10.816Z,97769.97
2023-01-07T02:41:44.120Z,97781.56
2023-01-07T02:44:15.955Z,97772.66
2023-01-07T02:46:45.161Z,97774.47
2023-01-07T02:49:16.626Z,97782.50
2023-01-07T02:51:45.725Z,97774.47
2023-01-07T02:54:16.630Z,97777.16
2023-01-07T02:56:54.757Z,97778.97
2023-01-07T02:59:29.787Z,97776.28
2023-01-07T03:02:18.783Z,97780.75
2023-01-07T03:05:07.193Z,97779.06
2023-01-07T03:07:52.555Z,97779.97
2023-01-07T03:10:25.969Z,97776.44
2023-01-07T03:12:56.650Z,97774.63
2023-01-07T03:15:29.012Z,97772.91
2023-01-07T03:18:00.921Z,97777.41
2023-01-07T03:20:30.535Z,97772.91
2023-01-07T03:22:58.790Z,97776.53
2023-01-07T03:25:28.045Z,97775.59
2023-01-07T03:27:56.158Z,97774.72
2023-01-07T03:30:24.350Z,97768.47
2023-01-07T03:32:55.511Z,97771.16
2023-01-07T03:35:24.112Z,97770.28
2023-01-07T03:37:53.566Z,97770.28
2023-01-07T03:40:22.078Z,97763.19
2023-01-07T03:42:49.437Z,97767.69
2023-01-07T03:45:25.073Z,97774.81
2023-01-07T03:47:56.571Z,97769.50
2023-01-07T03:50:27.709Z,97763.28
2023-01-07T03:52:58.465Z,97771.34
2023-01-07T03:55:26.941Z,97765.97
2023-01-07T03:57:57.377Z,97761.53
2023-01-07T04:00:26.687Z,97765.09
2023-01-07T04:03:01.385Z,97763.34
2023-01-07T04:05:34.406Z,97770.47
2023-01-07T04:08:03.880Z,97767.78
2023-01-07T04:10:35.658Z,97766.03
2023-01-07T04:13:03.849Z,97770.56
2023-01-07T04:15:31.975Z,97759.81
2023-01-07T04:18:00.160Z,97760.75
2023-01-07T04:20:29.429Z,97758.09
2023-01-07T04:22:57.620Z,97758.94
2023-01-07T04:25:27.123Z,97764.41
2023-01-07T04:27:56.268Z,97765.25
2023-01-07T04:30:25.177Z,97769.78
2023-01-07T04:32:53.421Z,97770.63
2023-01-07T04:35:21.528Z,97775.13
2023-01-07T04:37:49.754Z,97768.91
2023-01-07T04:40:17.914Z,97770.72
2023-01-07T04:42:47.691Z,97771.59
2023-01-07T04:45:16.112Z,97764.47
2023-01-07T04:47:44.254Z,97762.66
2023-01-07T04:50:12.902Z,97767.16
2023-01-07T04:52:41.372Z,97752.91
2023-01-07T04:55:11.134Z,97754.72
2023-01-07T04:57:39.492Z,97760.94
2023-01-07T05:00:11.527Z,97754.72
2023-01-07T05:02:39.955Z,97754.72
2023-01-07T05:05:09.988Z,97748.56
2023-01-07T05:07:38.994Z,97752.13
2023-01-07T05:10:08.776Z,97749.44
2023-01-07T05:12:37.178Z,97745.97
2023-01-07T05:15:07.719Z,97744.13
2023-01-07T05:17:40.160Z,97745.09
2023-01-07T05:20:09.928Z,97739.75
2023-01-07T05:22:39.571Z,97739.75
2023-01-07T05:25:08.783Z,97746.81
2023-01-07T05:27:36.927Z,97742.41
2023-01-07T05:30:07.204Z,97745.09
2023-01-07T05:32:36.403Z,97744.31
2023-01-07T05:35:06.676Z,97753.16
2023-01-07T05:37:35.138Z,97744.22
2023-01-07T05:40:04.396Z,97747.88
2023-01-07T05:42:32.638Z,97745.19
2023-01-07T05:45:01.515Z,97740.75
2023-01-07T05:47:29.702Z,97749.59
2023-01-07T05:49:57.844Z,97755.91
2023-01-07T05:52:27.301Z,97755.97
2023-01-07T05:54:55.511Z,97761.34
2023-01-07T05:57:23.566Z,97755.13
2023-01-07T05:59:51.731Z,97752.47
2023-01-07T06:02:19.825Z,97753.31
2023-01-07T06:04:48.116Z,97752.47
2023-01-07T06:07:16.303Z,97755.19
2023-01-07T06:09:45.818Z,97750.72
2023-01-07T06:12:13.859Z,97750.72
2023-01-07T06:14:41.987Z,97751.59
2023-01-07T06:17:10.062Z,97751.59
2023-01-07T06:19:38.260Z,97751.59
2023-01-07T06:22:06.615Z,97752.47
2023-01-07T06:24:35.084Z,97755.13
2023-01-07T06:27:04.626Z,97752.47
2023-01-07T06:29:32.786Z,97756.06
2023-01-07T06:32:00.944Z,97752.47
2023-01-07T06:34:29.064Z,97745.34
2023-01-07T06:36:57.155Z,97746.22
2023-01-07T06:39:25.234Z,97747.94
2023-01-07T06:41:53.344Z,97747.09
2023-01-07T06:44:22.857Z,97743.53
2023-01-07T06:46:51.017Z,97757.72
2023-01-07T06:49:19.211Z,97752.28
2023-01-07T06:51:47.275Z,97761.97
2023-01-07T06:54:15.681Z,97757.47
2023-01-07T06:56:43.715Z,97759.97
2023-01-07T06:59:12.063Z,97757.31
2023-01-07T07:01:41.648Z,97759.88
2023-01-07T07:04:09.912Z,97759.81
2023-01-07T07:06:37.983Z,97766.91
2023-01-07T07:09:06.150Z,97767.78
2023-01-07T07:11:34.228Z,97766.81
2023-01-07T07:14:02.497Z,97763.19
2023-01-07T07:16:32.571Z,97765.00
2023-01-07T07:19:02.257Z,97772.13
2023-01-07T07:21:30.415Z,97762.22
2023-01-07T07:24:00.580Z,97758.72
2023-01-07T07:26:28.675Z,97764.84
2023-01-07T07:28:56.757Z,97763.00
2023-01-07T07:31:24.947Z,97763.78
2023-01-07T07:33:53.040Z,97761.03
2023-01-07T07:36:22.551Z,97753.81
2023-01-07T07:38:51.143Z,97754.66
2023-01-07T07:41:19.296Z,97748.25
2023-01-07T07:43:47.385Z,97746.34
2023-01-07T07:46:15.668Z,97751.63
2023-01-07T07:48:43.967Z,97749.72
2023-01-07T07:51:12.110Z,97746.94
2023-01-07T07:53:41.603Z,97740.66
2023-01-07T07:56:09.957Z,97743.31
2023-01-07T07:58:38.076Z,97745.91
2023-01-07T08:01:06.783Z,97747.56
2023-01-07T08:03:34.910Z,97743.06
2023-01-07T08:06:04.231Z,97737.63
2023-01-07T08:08:32.396Z,97741.16
2023-01-07T08:11:01.817Z,97739.31
2023-01-07T08:13:31.063Z,97738.38
2023-01-07T08:15:59.294Z,97729.38
2023-01-07T08:18:27.464Z,97729.31
2023-01-07T08:20:56.331Z,97724.78
2023-01-07T08:23:24.496Z,97731.03
2023-01-07T08:25:52.558Z,97727.41
2023-01-07T08:28:22.048Z,97723.75
2023-01-07T08:30:50.216Z,97724.63
2023-01-07T08:33:18.484Z,97718.47
2023-01-07T08:35:46.665Z,97711.19
2023-01-07T08:38:15.058Z,97719.16
2023-01-07T08:40:44.307Z,97709.97
2023-01-07T08:43:12.403Z,97710.75
2023-01-07T08:45:41.960Z,97713.53
2023-01-07T08:48:10.035Z,97712.75
2023-01-07T08:50:38.181Z,97706.41
2023-01-07T08:53:06.351Z,97700.09
2023-01-07T08:55:34.477Z,97707.97
2023-01-07T08:58:02.586Z,97702.53
2023-01-07T09:00:30.869Z,97705.13
2023-01-07T09:03:00.424Z,97704.34
2023-01-07T09:05:28.546Z,97706.06
2023-01-07T09:07:56.911Z,97708.84
2023-01-07T09:10:25.180Z,97704.34
2023-01-07T09:12:53.254Z,97698.00
2023-01-07T09:15:21.402Z,97701.47
2023-01-07T09:17:49.558Z,97703.31
2023-01-07T09:20:19.294Z,97697.84
2023-01-07T09:22:47.453Z,97688.03
2023-01-07T09:25:15.571Z,97697.84
2023-01-07T09:27:43.764Z,97704.94
2023-01-07T09:30:12.643Z,97695.16
2023-01-07T09:32:40.825Z,97690.56
2023-01-07T09:35:09.752Z,97688.75
2023-01-07T09:37:39.301Z,97688.66
2023-01-07T09:40:11.410Z,97687.69
2023-01-07T09:42:41.951Z,97685.88
2023-01-07T09:45:15.217Z,97690.22
2023-01-07T09:47:43.904Z,97695.56
2023-01-07T09:50:17.033Z,97683.88
2023-01-07T09:52:48.308Z,97682.06
2023-01-07T09:55:19.381Z,97683.78
2023-01-07T09:57:47.473Z,97679.28
2023-01-07T10:00:17.341Z,97677.47
2023-01-07T10:02:51.834Z,97664.91
2023-01-07T10:05:27.771Z,97670.19
2023-01-07T10:08:29.268Z,97663.09
2023-01-07T10:10:54.299Z,97654.06
2023-01-07T10:13:40.561Z,97645.91
2023-01-07T10:16:09.660Z,97635.94
2023-01-07T10:18:44.349Z,97638.56
2023-01-07T10:21:16.323Z,97634.91
2023-01-07T10:23:47.273Z,97622.25
2023-01-07T10:26:19.715Z,97618.41
2023-01-07T10:28:50.181Z,97618.31
2023-01-07T10:31:22.246Z,97610.09
2023-01-07T10:33:51.419Z,97607.28
2023-01-07T10:36:24.751Z,97604.63
2023-01-07T10:38:58.075Z,97605.47
2023-01-07T10:41:28.321Z,97597.44
2023-01-07T10:44:06.887Z,97597.31
2023-01-07T10:46:42.316Z,97593.63
2023-01-07T10:49:29.244Z,97581.63
2023-01-07T10:52:16.196Z,97577.91
2023-01-07T10:55:02.121Z,97573.41
2023-01-07T10:57:30.645Z,97572.25
2023-01-07T10:59:59.827Z,97560.34
2023-01-07T11:02:28.282Z,97563.59
2023-01-07T11:04:56.745Z,97556.31
2023-01-07T11:07:33.228Z,97546.31
2023-01-07T11:10:04.519Z,97547.97
2023-01-07T11:12:36.974Z,97532.72
2023-01-07T11:15:06.824Z,97527.34
2023-01-07T11:17:37.489Z,97520.97
2023-01-07T11:20:06.262Z,97519.16
2023-01-07T11:22:39.168Z,97510.22
2023-01-07T11:25:27.159Z,97513.69
2023-01-07T11:27:55.647Z,97504.75
2023-01-07T11:30:26.073Z,97494.22
2023-01-07T11:33:00.476Z,97496.91
2023-01-07T11:35:29.138Z,97488.06
2023-01-07T11:37:57.726Z,97485.38
2023-01-07T11:40:27.939Z,97486.34
2023-01-07T11:42:57.087Z,97485.38
2023-01-07T11:45:25.961Z,97477.44
2023-01-07T11:47:59.554Z,97470.31
2023-01-07T11:50:30.236Z,97471.19
2023-01-07T11:52:59.509Z,97460.53
2023-01-07T11:55:29.062Z,97456.88
2023-01-07T11:58:29.393Z,97447.88
2023-01-07T12:00:45.474Z,97447.09
2023-01-07T12:03:14.567Z,97432.81
2023-01-07T12:05:44.414Z,97429.25
2023-01-07T12:08:19.973Z,97421.94
2023-01-07T12:10:54.869Z,97419.25
2023-01-07T12:13:25.568Z,97422.81
2023-01-07T12:15:54.463Z,97410.31
2023-01-07T12:18:41.802Z,97410.31
2023-01-07T12:21:36.700Z,97403.25
2023-01-07T12:24:21.769Z,97403.25
2023-01-07T12:26:54.239Z,97392.59
2023-01-07T12:29:26.979Z,97389.06
2023-01-07T12:32:04.011Z,97383.78
2023-01-07T12:34:36.860Z,97385.72
2023-01-07T12:37:08.995Z,97383.97
2023-01-07T12:39:37.701Z,97376.66
2023-01-07T12:42:10.931Z,97372.28
2023-01-07T12:44:42.261Z,97373.13
2023-01-07T12:47:31.087Z,97365.06
2023-01-07T12:50:02.965Z,97357.00
2023-01-07T12:52:36.118Z,97356.03
2023-01-07T12:55:05.643Z,97350.66
2023-01-07T12:57:36.793Z,97353.38
2023-01-07T13:00:08.455Z,97350.56
2023-01-07T13:02:39.956Z,97344.31
2023-01-07T13:05:12.304Z,97340.78
2023-01-07T13:07:44.761Z,97338.09
2023-01-07T13:10:16.594Z,97342.50
2023-01-07T13:12:47.504Z,97329.94
2023-01-07T13:15:22.117Z,97333.56
2023-01-07T13:17:51.530Z,97326.38
2023-01-07T13:20:34.725Z,97332.63
2023-01-07T13:23:03.225Z,97323.69
2023-01-07T13:25:41.304Z,97321.00
2023-01-07T13:28:24.107Z,97327.13
2023-01-07T13:31:01.550Z,97325.31
2023-01-07T13:33:33.788Z,97321.00
2023-01-07T13:36:14.376Z,97322.00
2023-01-07T13:39:05.285Z,97319.31
2023-01-07T13:41:39.768Z,97318.31
2023-01-07T13:44:24.918Z,97318.31
2023-01-07T13:46:53.208Z,97328.97
2023-01-07T13:49:26.772Z,97316.50
2023-01-07T13:51:55.015Z,97323.59
2023-01-07T13:54:57.192Z,97320.91
2023-01-07T13:57:41.867Z,97315.53
2023-01-07T14:00:42.787Z,97306.69
2023-01-07T14:03:44.800Z,97319.31
2023-01-07T14:06:43.106Z,97319.50
2023-01-07T14:09:29.677Z,97307.13
2023-01-07T14:12:31.477Z,97317.78
2023-01-07T14:15:12.140Z,97315.09
2023-01-07T14:17:44.137Z,97310.56
2023-01-07T14:20:15.570Z,97306.16
2023-01-07T14:22:46.589Z,97310.56
2023-01-07T14:25:24.950Z,97306.16
2023-01-07T14:28:26.899Z,97299.81
2023-01-07T14:30:55.152Z,97298.97
2023-01-07T14:33:26.100Z,97296.38
2023-01-07T14:35:56.492Z,97298.09
2023-01-07T14:38:48.123Z,97298.00
2023-01-07T14:41:17.023Z,97294.44
2023-01-07T14:43:50.165Z,97288.22
2023-01-07T14:46:50.355Z,97287.34
2023-01-07T14:50:03.452Z,97290.06
2023-01-07T14:53:05.517Z,97288.41
2023-01-07T14:55:46.358Z,97278.66
2023-01-07T14:58:28.184Z,97287.56
2023-01-07T15:01:32.564Z,97278.72
2023-01-07T15:04:23.635Z,97280.59
2023-01-07T15:06:52.176Z,97277.91
2023-01-07T15:09:41.801Z,97280.59
2023-01-07T15:12:31.482Z,97273.34
2023-01-07T15:15:20.981Z,97272.41
2023-01-07T15:17:49.219Z,97268.00
2023-01-07T15:20:17.439Z,97268.97
2023-01-07T15:23:00.955Z,97271.66
2023-01-07T15:25:47.923Z,97267.16
2023-01-07T15:28:19.110Z,97260.91
2023-01-07T15:30:51.860Z,97261.78
2023-01-07T15:33:41.014Z,97270.66
2023-01-07T15:36:10.272Z,97266.16
2023-01-07T15:38:41.411Z,97263.59
2023-01-07T15:41:22.698Z,97258.34
2023-01-07T15:43:51.063Z,97257.34
2023-01-07T15:46:19.259Z,97262.72
2023-01-07T15:48:47.468Z,97268.09
2023-01-07T15:51:16.532Z,97260.03
2023-01-07T15:53:44.889Z,97267.22
2023-01-07T15:56:14.909Z,97264.53
2023-01-07T15:58:46.088Z,97260.03
2023-01-07T16:01:16.830Z,97257.34
2023-01-07T16:03:45.297Z,97261.78
2023-01-07T16:06:28.491Z,97258.22
2023-01-07T16:08:56.728Z,97251.03
2023-01-07T16:11:25.800Z,97259.94
2023-01-07T16:13:59.399Z,97264.34
2023-01-07T16:16:28.366Z,97252.75
2023-01-07T16:18:56.897Z,97256.28
2023-01-07T16:21:25.332Z,97256.28
2023-01-07T16:23:53.503Z,97250.81
2023-01-07T16:26:23.001Z,97248.22
2023-01-07T16:28:52.215Z,97247.25
2023-01-07T16:31:23.678Z,97242.75
2023-01-07T16:33:52.678Z,97242.75
2023-01-07T16:36:21.644Z,97246.31
2023-01-07T16:38:50.667Z,97249.88
2023-01-07T16:41:21.324Z,97246.31
2023-01-07T16:43:49.568Z,97242.63
2023-01-07T16:46:26.911Z,97243.50
2023-01-07T16:49:15.438Z,97238.13
2023-01-07T16:51:44.486Z,97244.38
2023-01-07T16:54:31.165Z,97242.63
2023-01-07T16:57:00.496Z,97239.94
2023-01-07T16:59:29.995Z,97236.44
2023-01-07T17:02:00.832Z,97237.25
2023-01-07T17:04:30.238Z,97235.44
2023-01-07T17:06:59.507Z,97238.13
2023-01-07T17:09:28.962Z,97239.00
2023-01-07T17:11:57.195Z,97239.00
2023-01-07T17:14:47.926Z,97232.66
2023-01-07T17:17:29.904Z,97236.19
2023-01-07T17:20:04.337Z,97234.38
2023-01-07T17:22:33.488Z,97229.88
2023-01-07T17:25:07.182Z,97228.16
2023-01-07T17:27:35.544Z,97220.94
2023-01-07T17:30:04.553Z,97222.66
2023-01-07T17:32:34.577Z,97221.72
2023-01-07T17:35:04.118Z,97221.72
2023-01-07T17:37:32.338Z,97225.34
2023-01-07T17:40:00.533Z,97227.09
2023-01-07T17:42:58.515Z,97218.03
2023-01-07T17:45:27.821Z,97217.22
2023-01-07T17:47:58.916Z,97219.91
2023-01-07T17:50:37.375Z,97222.56
2023-01-07T17:53:05.587Z,97220.72
2023-01-07T17:55:36.001Z,97223.22
2023-01-07T17:58:04.240Z,97223.22
2023-01-07T18:00:33.252Z,97219.66
2023-01-07T18:03:02.897Z,97221.47
2023-01-07T18:05:31.163Z,97223.22
2023-01-07T18:07:59.386Z,97221.41
2023-01-07T18:10:50.197Z,97215.16
2023-01-07T18:13:17.371Z,97214.19
2023-01-07T18:15:45.558Z,97214.19
2023-01-07T18:18:15.179Z,97216.03
2023-01-07T18:20:43.317Z,97207.84
2023-01-07T18:23:12.139Z,97214.09
2023-01-07T18:25:40.223Z,97220.31
2023-01-07T18:28:08.583Z,97222.03
2023-01-07T18:30:38.989Z,97218.50
2023-01-07T18:33:07.845Z,97221.06
2023-01-07T18:35:37.607Z,97226.44
2023-01-07T18:38:06.025Z,97230.75
2023-01-07T18:40:34.221Z,97222.81
2023-01-07T18:43:02.472Z,97215.59
2023-01-07T18:45:30.602Z,97221.81
2023-01-07T18:47:58.913Z,97222.69
2023-01-07T18:50:27.102Z,97218.94
2023-01-07T18:52:56.691Z,97211.00
2023-01-07T18:55:26.999Z,97211.00
2023-01-07T18:57:55.172Z,97211.81
2023-01-07T19:00:23.433Z,97217.97
2023-01-07T19:02:51.523Z,97212.69
2023-01-07T19:05:19.658Z,97209.06
2023-01-07T19:07:47.844Z,97204.53
2023-01-07T19:10:17.424Z,97205.38
2023-01-07T19:12:45.668Z,97206.25
2023-01-07T19:15:13.913Z,97203.56
2023-01-07T19:17:42.181Z,97197.31
2023-01-07T19:20:12.590Z,97197.31
2023-01-07T19:22:40.802Z,97198.19
2023-01-07T19:25:09.549Z,97192.19
2023-01-07T19:27:39.182Z,97189.69
2023-01-07T19:30:08.579Z,97197.88
2023-01-07T19:32:36.783Z,97189.69
2023-01-07T19:35:05.370Z,97189.56
2023-01-07T19:37:33.676Z,97190.44
2023-01-07T19:40:01.880Z,97188.75
2023-01-07T19:42:30.180Z,97201.06
2023-01-07T19:44:59.775Z,97201.94
2023-01-07T19:47:27.966Z,97196.56
2023-01-07T19:49:56.137Z,97193.88
2023-01-07T19:52:24.489Z,97188.50
2023-01-07T19:54:52.591Z,97184.88
2023-01-07T19:57:20.668Z,97182.19
2023-01-07T19:59:48.751Z,97185.72
2023-01-07T20:02:18.716Z,97191.09
2023-01-07T20:04:46.960Z,97192.81
2023-01-07T20:07:15.107Z,97195.50
2023-01-07T20:09:43.230Z,97194.53
2023-01-07T20:12:11.399Z,97188.41
2023-01-07T20:14:39.693Z,97188.31
2023-01-07T20:17:07.758Z,97187.44
2023-01-07T20:19:37.451Z,97192.72
2023-01-07T20:22:05.631Z,97191.84
2023-01-07T20:24:34.025Z,97189.16
2023-01-07T20:27:02.363Z,97189.06
2023-01-07T20:29:30.583Z,97185.41
2023-01-07T20:31:58.906Z,97188.09
2023-01-07T20:34:27.155Z,97189.91
2023-01-07T20:36:57.027Z,97191.75
2023-01-07T20:39:25.318Z,97192.59
2023-01-07T20:41:53.414Z,97188.94
2023-01-07T20:44:22.334Z,97186.25
2023-01-07T20:46:50.547Z,97180.03
2023-01-07T20:49:18.886Z,97184.44
2023-01-07T20:51:47.362Z,97179.06
2023-01-07T20:54:16.877Z,97179.91
2023-01-07T20:56:45.486Z,97181.75
2023-01-07T20:59:15.883Z,97179.06
2023-01-07T21:01:45.543Z,97177.22
2023-01-07T21:04:13.994Z,97179.06
2023-01-07T21:06:42.240Z,97173.78
2023-01-07T21:09:11.696Z,97173.69
2023-01-07T21:11:43.283Z,97174.53
2023-01-07T21:14:11.522Z,97173.59
2023-01-07T21:16:39.669Z,97156.69
2023-01-07T21:19:07.985Z,97159.38
2023-01-07T21:21:36.197Z,97157.56
2023-01-07T21:24:04.667Z,97160.16
2023-01-07T21:26:32.708Z,97161.09
2023-01-07T21:29:02.312Z,97152.19
2023-01-07T21:31:30.529Z,97147.66
2023-01-07T21:33:58.794Z,97138.75
2023-01-07T21:36:27.180Z,97144.13
2023-01-07T21:38:56.231Z,97150.34
2023-01-07T21:41:24.566Z,97152.19
2023-01-07T21:43:52.863Z,97153.03
2023-01-07T21:46:23.088Z,97141.44
2023-01-07T21:48:52.052Z,97144.13
2023-01-07T21:51:21.050Z,97143.25
2023-01-07T21:53:49.210Z,97140.56
2023-01-07T21:56:17.978Z,97139.81
2023-01-07T21:58:46.419Z,97138.97
2023-01-07T22:01:14.739Z,97134.56
2023-01-07T22:03:46.897Z,97139.06
2023-01-07T22:06:18.291Z,97135.41
2023-01-07T22:08:46.572Z,97133.59
2023-01-07T22:11:14.859Z,97128.22
2023-01-07T22:13:43.134Z,97128.22
2023-01-07T22:16:11.277Z,97124.66
2023-01-07T22:18:39.523Z,97127.34
2023-01-07T22:21:09.108Z,97122.84
2023-01-07T22:23:37.902Z,97124.66
2023-01-07T22:26:06.588Z,97124.66
2023-01-07T22:28:35.549Z,97128.31
2023-01-07T22:31:04.662Z,97124.78
2023-01-07T22:33:32.845Z,97131.97
2023-01-07T22:36:01.045Z,97130.25
2023-01-07T22:38:30.769Z,97124.88
2023-01-07T22:40:59.035Z,97119.50
2023-01-07T22:43:27.330Z,97125.94
2023-01-07T22:45:56.743Z,97124.13
2023-01-07T22:48:27.324Z,97114.34
2023-01-07T22:50:56.850Z,97108.22
2023-01-07T22:53:25.275Z,97115.31
2023-01-07T22:55:55.011Z,97108.31
2023-01-07T22:58:23.415Z,97104.78
2023-01-07T23:01:08.729Z,97094.13
2023-01-07T23:03:37.089Z,97096.72
2023-01-07T23:06:05.719Z,97089.63
2023-01-07T23:08:34.173Z,97075.34
2023-01-07T23:11:03.740Z,97071.91
2023-01-07T23:13:31.997Z,97078.13
2023-01-07T23:16:01.905Z,97079.09
2023-01-07T23:18:30.296Z,97068.44
2023-01-07T23:20:58.516Z,97068.34
2023-01-07T23:23:26.767Z,97069.31
2023-01-07T23:25:55.097Z,97068.44
2023-01-07T23:28:24.735Z,97068.56
2023-01-07T23:30:52.889Z,97066.84
2023-01-07T23:33:21.092Z,97066.84
2023-01-07T23:35:49.290Z,97064.16
2023-01-07T23:38:17.684Z,97061.47
2023-01-07T23:40:46.156Z,97061.56
2023-01-07T23:43:14.411Z,97049.22
2023-01-07T23:45:44.427Z,97051.81
2023-01-07T23:48:12.820Z,97046.53
2023-01-07T23:50:40.957Z,97042.13
2023-01-07T23:53:09.271Z,97036.78
2023-01-07T23:55:39.282Z,97036.78
2023-01-07T23:58:07.528Z,97035.03
